createdAt,value
2022-11-06T00:00:55.860Z,5.27
2022-11-06T00:03:22.528Z,5.67
2022-11-06T00:06:07.618Z,5.70
2022-11-06T00:08:37.033Z,5.27
2022-11-06T00:11:12.422Z,5.50
2022-11-06T00:13:39.645Z,5.00
2022-11-06T00:16:08.449Z,5.20
2022-11-06T00:18:35.901Z,5.17
2022-11-06T00:21:11.441Z,5.27
2022-11-06T00:23:38.376Z,5.50
2022-11-06T00:26:08.898Z,5.70
2022-11-06T00:28:35.946Z,5.43
2022-11-06T00:31:04.992Z,5.20
2022-11-06T00:33:31.779Z,5.27
2022-11-06T00:35:58.490Z,5.03
2022-11-06T00:38:25.665Z,4.60
2022-11-06T00:40:52.209Z,5.40
2022-11-06T00:43:18.753Z,6.20
2022-11-06T00:45:45.307Z,5.30
2022-11-06T00:48:12.158Z,5.50
2022-11-06T00:50:39.083Z,5.67
2022-11-06T00:53:05.613Z,5.30
2022-11-06T00:55:32.198Z,5.20
2022-11-06T00:57:58.754Z,5.30
2022-11-06T01:00:25.659Z,5.60
2022-11-06T01:02:52.332Z,5.00
2022-11-06T01:05:19.074Z,5.73
2022-11-06T01:07:45.689Z,5.57
2022-11-06T01:10:12.380Z,5.97
2022-11-06T01:12:39.091Z,5.80
2022-11-06T01:15:06.276Z,5.43
2022-11-06T01:17:34.172Z,5.60
2022-11-06T01:20:00.782Z,6.57
2022-11-06T01:22:27.358Z,5.23
2022-11-06T01:24:53.937Z,5.67
2022-11-06T01:27:26.388Z,5.87
2022-11-06T01:29:53.772Z,5.90
2022-11-06T01:32:20.568Z,6.00
2022-11-06T01:34:49.684Z,5.70
2022-11-06T01:37:16.221Z,5.83
2022-11-06T01:39:42.921Z,5.60
2022-11-06T01:42:15.214Z,5.73
2022-11-06T01:44:44.768Z,5.73
2022-11-06T01:47:26.873Z,5.80
2022-11-06T01:49:57.233Z,6.10
2022-11-06T01:52:24.707Z,5.87
2022-11-06T01:54:55.909Z,6.43
2022-11-06T01:57:22.607Z,6.53
2022-11-06T01:59:51.538Z,6.40
2022-11-06T02:02:18.946Z,6.10
2022-11-06T02:04:48.325Z,6.03
2022-11-06T02:07:16.634Z,6.03
2022-11-06T02:09:43.360Z,6.63
2022-11-06T02:12:38.439Z,5.67
2022-11-06T02:15:23.672Z,6.50
2022-11-06T02:18:15.381Z,6.40
2022-11-06T02:21:06.178Z,6.17
2022-11-06T02:24:16.082Z,6.57
2022-11-06T02:26:57.131Z,6.53
2022-11-06T02:29:34.641Z,6.73
2022-11-06T02:32:07.450Z,6.33
2022-11-06T02:34:36.557Z,6.40
2022-11-06T02:37:10.130Z,6.40
2022-11-06T02:39:40.819Z,6.83
2022-11-06T02:42:09.974Z,6.47
2022-11-06T02:44:37.882Z,6.13
2022-11-06T02:47:10.269Z,6.27
2022-11-06T02:49:57.516Z,7.07
2022-11-06T02:52:36.922Z,6.63
2022-11-06T02:55:11.391Z,6.67
2022-11-06T02:57:41.860Z,6.67
2022-11-06T03:00:15.342Z,6.53
2022-11-06T03:03:14.661Z,6.30
2022-11-06T03:05:54.824Z,6.57
2022-11-06T03:08:31.752Z,6.87
2022-11-06T03:11:24.193Z,6.17
2022-11-06T03:14:09.463Z,6.93
2022-11-06T03:16:57.742Z,6.57
2022-11-06T03:19:32.473Z,6.57
2022-11-06T03:22:08.993Z,6.10
2022-11-06T03:24:44.364Z,6.40
2022-11-06T03:27:22.383Z,6.60
2022-11-06T03:29:54.958Z,7.00
2022-11-06T03:32:40.433Z,6.60
2022-11-06T03:35:12.698Z,6.70
2022-11-06T03:38:01.662Z,6.60
2022-11-06T03:40:31.880Z,6.80
2022-11-06T03:43:03.169Z,7.43
2022-11-06T03:45:32.188Z,6.70
2022-11-06T03:48:13.593Z,6.60
2022-11-06T03:50:45.276Z,6.00
2022-11-06T03:53:21.223Z,6.50
2022-11-06T03:55:55.438Z,6.47
2022-11-06T03:58:25.903Z,6.50
2022-11-06T04:00:54.570Z,6.50
2022-11-06T04:03:29.041Z,7.07
2022-11-06T04:06:15.496Z,6.67
2022-11-06T04:09:01.934Z,5.87
2022-11-06T04:11:49.457Z,6.77
2022-11-06T04:14:18.101Z,6.70
2022-11-06T04:16:51.457Z,6.20
2022-11-06T04:19:22.804Z,7.00
2022-11-06T04:22:26.912Z,6.83
2022-11-06T04:25:26.412Z,6.93
2022-11-06T04:28:26.733Z,6.97
2022-11-06T04:31:19.434Z,6.97
2022-11-06T04:33:59.929Z,6.60
2022-11-06T04:36:46.626Z,7.10
2022-11-06T04:39:41.026Z,6.10
2022-11-06T04:42:37.959Z,6.63
2022-11-06T04:45:17.195Z,6.53
2022-11-06T04:47:46.062Z,6.83
2022-11-06T04:50:17.098Z,7.10
2022-11-06T04:52:44.962Z,7.27
2022-11-06T04:55:11.485Z,6.23
2022-11-06T04:57:38.064Z,6.93
2022-11-06T05:00:06.415Z,6.53
2022-11-06T05:02:32.999Z,7.20
2022-11-06T05:04:59.518Z,7.03
2022-11-06T05:07:26.050Z,6.50
2022-11-06T05:09:52.918Z,7.30
2022-11-06T05:12:19.456Z,7.60
2022-11-06T05:14:45.982Z,7.20
2022-11-06T05:17:12.846Z,7.13
2022-11-06T05:19:39.379Z,7.57
2022-11-06T05:22:24.696Z,7.43
2022-11-06T05:24:51.258Z,6.90
2022-11-06T05:27:17.857Z,6.47
2022-11-06T05:29:44.514Z,7.17
2022-11-06T05:32:11.061Z,6.80
2022-11-06T05:34:37.602Z,6.93
2022-11-06T05:37:04.202Z,7.00
2022-11-06T05:39:30.782Z,6.87
2022-11-06T05:41:57.306Z,6.97
2022-11-06T05:44:23.967Z,6.20
2022-11-06T05:46:50.546Z,6.80
2022-11-06T05:49:18.645Z,7.70
2022-11-06T05:51:45.527Z,6.97
2022-11-06T05:54:12.863Z,7.17
2022-11-06T05:56:39.506Z,6.60
2022-11-06T05:59:06.321Z,7.50
2022-11-06T06:01:33.026Z,7.23
2022-11-06T06:03:59.631Z,7.20
2022-11-06T06:06:26.750Z,7.67
2022-11-06T06:08:53.303Z,7.27
2022-11-06T06:11:19.998Z,7.77
2022-11-06T06:13:48.212Z,7.30
2022-11-06T06:16:14.738Z,7.50
2022-11-06T06:18:41.278Z,7.60
2022-11-06T06:21:07.839Z,7.30
2022-11-06T06:23:34.411Z,7.50
2022-11-06T06:26:01.072Z,7.53
2022-11-06T06:28:27.641Z,6.93
2022-11-06T06:31:00.071Z,7.37
2022-11-06T06:33:28.022Z,7.80
2022-11-06T06:35:54.553Z,7.17
2022-11-06T06:38:21.081Z,7.70
2022-11-06T06:40:47.656Z,7.57
2022-11-06T06:43:14.366Z,7.23
2022-11-06T06:45:41.012Z,7.57
2022-11-06T06:48:07.819Z,7.33
2022-11-06T06:50:34.540Z,7.00
2022-11-06T06:53:01.514Z,8.67
2022-11-06T06:55:28.507Z,7.70
2022-11-06T06:57:59.495Z,8.43
2022-11-06T07:00:26.831Z,7.17
2022-11-06T07:02:53.458Z,7.37
2022-11-06T07:05:20.558Z,7.00
2022-11-06T07:07:47.344Z,7.53
2022-11-06T07:10:14.204Z,7.80
2022-11-06T07:12:40.798Z,7.97
2022-11-06T07:15:08.271Z,7.70
2022-11-06T07:17:34.814Z,7.33
2022-11-06T07:20:01.414Z,7.90
2022-11-06T07:22:35.460Z,7.23
2022-11-06T07:25:04.403Z,7.57
2022-11-06T07:27:30.963Z,7.87
2022-11-06T07:29:57.585Z,8.03
2022-11-06T07:32:24.145Z,7.33
2022-11-06T07:34:50.674Z,6.83
2022-11-06T07:37:17.245Z,7.47
2022-11-06T07:39:43.836Z,7.03
2022-11-06T07:42:10.446Z,7.17
2022-11-06T07:44:37.037Z,7.57
2022-11-06T07:47:03.591Z,7.67
2022-11-06T07:49:30.187Z,7.40
2022-11-06T07:51:56.795Z,7.90
2022-11-06T07:54:23.397Z,7.93
2022-11-06T07:56:49.943Z,7.83
2022-11-06T07:59:16.534Z,7.60
2022-11-06T08:01:43.282Z,7.87
2022-11-06T08:04:10.714Z,7.47
2022-11-06T08:06:37.281Z,8.00
2022-11-06T08:09:08.281Z,7.67
2022-11-06T08:11:35.075Z,7.20
2022-11-06T08:14:01.954Z,7.83
2022-11-06T08:16:28.982Z,7.53
2022-11-06T08:18:55.894Z,7.53
2022-11-06T08:21:22.566Z,8.07
2022-11-06T08:23:49.190Z,7.40
2022-11-06T08:26:15.992Z,7.93
2022-11-06T08:28:42.733Z,7.70
2022-11-06T08:31:09.668Z,7.47
2022-11-06T08:33:38.376Z,7.70
2022-11-06T08:36:06.285Z,7.07
2022-11-06T08:38:32.861Z,8.13
2022-11-06T08:41:03.886Z,7.93
2022-11-06T08:43:30.432Z,7.67
2022-11-06T08:45:56.975Z,8.13
2022-11-06T08:48:27.034Z,7.10
2022-11-06T08:50:53.653Z,6.83
2022-11-06T08:53:20.249Z,7.77
2022-11-06T08:55:47.091Z,7.60
2022-11-06T08:58:14.098Z,8.00
2022-11-06T09:00:41.013Z,7.73
2022-11-06T09:03:11.415Z,7.30
2022-11-06T09:05:43.185Z,8.13
2022-11-06T09:08:11.081Z,7.13
2022-11-06T09:10:39.510Z,7.27
2022-11-06T09:13:06.699Z,7.53
2022-11-06T09:15:33.660Z,7.77
2022-11-06T09:18:00.279Z,7.47
2022-11-06T09:20:29.180Z,7.00
2022-11-06T09:23:01.881Z,7.70
2022-11-06T09:25:29.252Z,6.53
2022-11-06T09:27:59.378Z,7.77
2022-11-06T09:30:28.874Z,6.80
2022-11-06T09:32:58.476Z,6.73
2022-11-06T09:35:29.066Z,6.53
2022-11-06T09:38:04.697Z,6.70
2022-11-06T09:40:53.106Z,6.23
2022-11-06T09:46:24.635Z,6.17
2022-11-06T09:49:01.655Z,6.30
2022-11-06T09:52:00.673Z,6.27
2022-11-06T09:54:40.884Z,6.77
2022-11-06T09:57:17.663Z,6.43
2022-11-06T09:59:45.174Z,5.60
2022-11-06T10:02:31.804Z,6.00
2022-11-06T10:05:08.770Z,5.70
2022-11-06T10:07:39.450Z,5.57
2022-11-06T10:10:11.537Z,5.90
2022-11-06T10:12:47.185Z,5.67
2022-11-06T10:15:51.071Z,6.07
2022-11-06T10:18:55.361Z,4.97
2022-11-06T10:21:25.998Z,5.97
2022-11-06T10:24:05.715Z,5.50
2022-11-06T10:26:45.552Z,5.57
2022-11-06T10:29:34.361Z,5.23
2022-11-06T10:32:30.701Z,5.80
2022-11-06T10:35:05.758Z,5.27
2022-11-06T10:37:49.681Z,5.73
2022-11-06T10:40:24.037Z,5.50
2022-11-06T10:43:19.027Z,5.63
2022-11-06T10:45:52.635Z,5.73
2022-11-06T10:48:34.425Z,5.60
2022-11-06T10:51:24.038Z,5.43
2022-11-06T10:54:07.436Z,5.20
2022-11-06T10:56:51.530Z,5.37
2022-11-06T10:59:18.511Z,5.93
2022-11-06T11:01:45.106Z,5.57
2022-11-06T11:04:11.804Z,5.37
2022-11-06T11:06:41.778Z,5.30
2022-11-06T11:09:29.265Z,5.73
2022-11-06T11:11:55.924Z,5.10
2022-11-06T11:14:25.350Z,5.60
2022-11-06T11:16:52.285Z,4.80
2022-11-06T11:19:36.811Z,5.20
2022-11-06T11:22:06.009Z,5.27
2022-11-06T11:24:32.891Z,5.17
2022-11-06T11:27:05.455Z,5.07
2022-11-06T11:29:45.157Z,5.50
2022-11-06T11:32:16.729Z,5.13
2022-11-06T11:34:53.896Z,5.50
2022-11-06T11:37:30.382Z,5.00
2022-11-06T11:40:19.617Z,4.73
2022-11-06T11:42:46.206Z,5.30
2022-11-06T11:45:15.785Z,5.27
2022-11-06T11:47:46.633Z,4.70
2022-11-06T11:50:32.191Z,4.97
2022-11-06T11:53:20.166Z,5.63
2022-11-06T11:55:50.476Z,4.67
2022-11-06T11:58:23.820Z,6.03
2022-11-06T12:00:57.981Z,4.80
2022-11-06T12:03:28.994Z,4.57
2022-11-06T12:06:06.501Z,4.43
2022-11-06T12:08:33.461Z,4.60
2022-11-06T12:11:05.883Z,4.47
2022-11-06T12:13:32.544Z,4.93
2022-11-06T12:16:03.878Z,4.27
2022-11-06T12:18:47.595Z,4.23
2022-11-06T12:21:36.021Z,4.23
2022-11-06T12:24:20.061Z,4.13
2022-11-06T12:27:02.134Z,3.73
2022-11-06T12:29:36.353Z,3.70
2022-11-06T12:32:38.754Z,4.10
2022-11-06T12:35:13.672Z,4.10
2022-11-06T12:38:00.650Z,4.63
2022-11-06T12:40:41.167Z,4.03
2022-11-06T12:43:29.752Z,4.30
2022-11-06T12:46:05.148Z,4.70
2022-11-06T12:48:59.699Z,4.07
2022-11-06T12:51:47.518Z,4.03
2022-11-06T12:54:39.975Z,3.97
2022-11-06T12:57:39.010Z,3.97
2022-11-06T13:00:17.958Z,3.57
2022-11-06T13:03:13.184Z,3.87
2022-11-06T13:05:52.463Z,4.10
2022-11-06T13:08:49.377Z,4.03
2022-11-06T13:11:29.370Z,3.60
2022-11-06T13:14:11.666Z,3.63
2022-11-06T13:17:20.178Z,3.60
2022-11-06T13:19:57.558Z,3.37
2022-11-06T13:22:44.768Z,3.80
2022-11-06T13:25:36.530Z,3.53
2022-11-06T13:28:41.285Z,3.50
2022-11-06T13:31:11.924Z,3.10
2022-11-06T13:33:46.802Z,3.57
2022-11-06T13:36:13.984Z,3.63
2022-11-06T13:38:58.146Z,2.90
2022-11-06T13:41:29.885Z,3.50
2022-11-06T13:44:08.167Z,3.37
2022-11-06T13:46:52.872Z,3.67
2022-11-06T13:49:38.830Z,3.10
2022-11-06T13:52:30.030Z,3.30
2022-11-06T13:55:06.829Z,3.60
2022-11-06T13:57:55.946Z,3.13
2022-11-06T14:00:35.427Z,3.87
2022-11-06T14:03:48.018Z,3.10
2022-11-06T14:06:20.860Z,3.17
2022-11-06T14:09:00.477Z,2.93
2022-11-06T14:11:42.631Z,3.67
2022-11-06T14:14:23.174Z,3.20
2022-11-06T14:17:10.421Z,2.90
2022-11-06T14:19:37.415Z,2.90
2022-11-06T14:22:09.713Z,3.40
2022-11-06T14:24:41.410Z,2.70
2022-11-06T14:27:33.945Z,2.80
2022-11-06T14:31:10.521Z,2.87
2022-11-06T14:33:45.894Z,2.60
2022-11-06T14:36:32.481Z,3.00
2022-11-06T14:38:59.104Z,3.40
2022-11-06T14:41:53.247Z,2.73
2022-11-06T14:44:33.170Z,2.40
2022-11-06T14:47:02.965Z,2.90
2022-11-06T14:49:51.086Z,2.97
2022-11-06T14:52:18.484Z,3.17
2022-11-06T14:55:03.402Z,2.83
2022-11-06T14:57:52.110Z,2.80
2022-11-06T15:00:58.799Z,2.97
2022-11-06T15:03:40.441Z,2.97
2022-11-06T15:06:33.580Z,3.20
2022-11-06T15:09:15.632Z,3.33
2022-11-06T15:11:47.788Z,3.17
2022-11-06T15:14:14.666Z,3.23
2022-11-06T15:16:55.687Z,3.27
2022-11-06T15:19:26.560Z,3.00
2022-11-06T15:22:15.598Z,2.90
2022-11-06T15:24:54.364Z,3.10
2022-11-06T15:27:26.885Z,3.20
2022-11-06T15:29:58.365Z,3.20
2022-11-06T15:32:27.606Z,3.07
2022-11-06T15:35:08.021Z,2.80
2022-11-06T15:37:53.507Z,3.00
2022-11-06T15:40:39.632Z,3.13
2022-11-06T15:43:09.031Z,3.40
2022-11-06T15:45:35.662Z,3.47
2022-11-06T15:48:05.522Z,2.97
2022-11-06T15:50:37.007Z,3.40
2022-11-06T15:53:18.388Z,3.03
2022-11-06T15:55:53.978Z,3.30
2022-11-06T15:58:23.058Z,3.23
2022-11-06T16:00:51.440Z,3.30
2022-11-06T16:03:21.037Z,3.00
2022-11-06T16:05:48.528Z,3.57
2022-11-06T16:08:17.847Z,3.23
2022-11-06T16:10:48.150Z,3.07
2022-11-06T16:13:18.261Z,3.07
2022-11-06T16:15:51.373Z,3.37
2022-11-06T16:18:28.494Z,3.83
2022-11-06T16:21:10.942Z,3.90
2022-11-06T16:23:46.924Z,4.50
2022-11-06T16:26:37.244Z,4.27
2022-11-06T16:29:17.830Z,4.17
2022-11-06T16:31:45.601Z,4.57
2022-11-06T16:34:38.497Z,4.00
2022-11-06T16:37:27.922Z,3.80
2022-11-06T16:39:55.909Z,4.00
2022-11-06T16:42:22.429Z,4.30
2022-11-06T16:45:10.208Z,4.10
2022-11-06T16:47:36.980Z,4.30
2022-11-06T16:50:05.873Z,4.00
2022-11-06T16:52:40.082Z,4.47
2022-11-06T16:55:25.413Z,4.50
2022-11-06T16:57:59.381Z,4.50
2022-11-06T17:00:29.628Z,4.43
2022-11-06T17:03:02.451Z,4.23
2022-11-06T17:05:33.531Z,4.20
2022-11-06T17:08:26.232Z,5.13
2022-11-06T17:10:59.631Z,4.47
2022-11-06T17:13:28.332Z,4.90
2022-11-06T17:16:00.787Z,6.77
2022-11-06T17:18:32.392Z,5.57
2022-11-06T17:21:01.221Z,4.43
2022-11-06T17:23:28.866Z,4.60
2022-11-06T17:26:02.063Z,4.60
2022-11-06T17:28:28.942Z,4.33
2022-11-06T17:30:55.693Z,4.57
2022-11-06T17:33:22.558Z,4.47
2022-11-06T17:35:49.688Z,4.50
2022-11-06T17:38:17.790Z,4.87
2022-11-06T17:40:45.605Z,4.30
2022-11-06T17:43:12.731Z,4.80
2022-11-06T17:45:41.727Z,5.00
2022-11-06T17:48:08.350Z,5.13
2022-11-06T17:50:54.843Z,5.43
2022-11-06T17:53:21.482Z,5.00
2022-11-06T17:55:48.108Z,5.00
2022-11-06T17:58:15.015Z,5.17
2022-11-06T18:00:42.638Z,5.27
2022-11-06T18:03:17.823Z,5.00
2022-11-06T18:05:44.867Z,5.27
2022-11-06T18:08:12.847Z,5.60
2022-11-06T18:10:39.709Z,5.77
2022-11-06T18:13:07.087Z,5.63
2022-11-06T18:15:35.141Z,5.50
2022-11-06T18:18:01.853Z,5.90
2022-11-06T18:20:28.443Z,5.40
2022-11-06T18:22:55.197Z,5.40
2022-11-06T18:25:21.742Z,5.60
2022-11-06T18:27:48.272Z,5.97
2022-11-06T18:30:14.873Z,5.57
2022-11-06T18:32:41.436Z,5.20
2022-11-06T18:35:08.546Z,5.70
2022-11-06T18:37:35.166Z,5.83
2022-11-06T18:40:01.707Z,6.20
2022-11-06T18:42:28.462Z,5.83
2022-11-06T18:44:55.015Z,5.73
2022-11-06T18:47:21.557Z,6.27
2022-11-06T18:49:48.346Z,6.17
2022-11-06T18:52:27.730Z,6.10
2022-11-06T18:55:01.564Z,5.80
2022-11-06T18:57:29.615Z,6.00
2022-11-06T18:59:56.179Z,6.00
2022-11-06T19:02:23.417Z,6.23
2022-11-06T19:04:50.144Z,5.83
2022-11-06T19:07:16.802Z,6.23
2022-11-06T19:09:43.345Z,6.87
2022-11-06T19:12:10.182Z,6.80
2022-11-06T19:14:36.833Z,7.27
2022-11-06T19:17:03.666Z,6.80
2022-11-06T19:19:30.482Z,6.80
2022-11-06T19:21:57.030Z,7.07
2022-11-06T19:24:23.549Z,6.57
2022-11-06T19:26:50.295Z,7.43
2022-11-06T19:29:16.889Z,7.77
2022-11-06T19:31:43.495Z,7.50
2022-11-06T19:34:13.785Z,7.77
2022-11-06T19:36:40.367Z,8.00
2022-11-06T19:39:07.354Z,8.43
2022-11-06T19:41:33.973Z,7.83
2022-11-06T19:44:00.521Z,7.97
2022-11-06T19:46:32.326Z,8.53
2022-11-06T19:49:03.286Z,7.97
2022-11-06T19:51:33.873Z,7.40
2022-11-06T19:54:01.605Z,8.43
2022-11-06T19:56:28.201Z,8.20
2022-11-06T19:58:54.820Z,8.43
2022-11-06T20:01:22.189Z,8.63
2022-11-06T20:03:49.186Z,9.03
2022-11-06T20:06:16.413Z,8.13
2022-11-06T20:08:43.293Z,8.60
2022-11-06T20:11:12.929Z,8.40
2022-11-06T20:13:41.201Z,8.20
2022-11-06T20:16:11.424Z,8.90
2022-11-06T20:18:38.255Z,8.93
2022-11-06T20:21:08.057Z,9.57
2022-11-06T20:23:34.819Z,8.87
2022-11-06T20:26:01.677Z,10.37
2022-11-06T20:28:28.530Z,9.70
2022-11-06T20:30:56.147Z,9.77
2022-11-06T20:33:23.113Z,8.93
2022-11-06T20:35:49.732Z,9.70
2022-11-06T20:38:16.757Z,9.57
2022-11-06T20:40:43.281Z,9.47
2022-11-06T20:43:10.385Z,9.50
2022-11-06T20:45:37.661Z,10.20
2022-11-06T20:48:05.792Z,10.03
2022-11-06T20:50:32.699Z,9.80
2022-11-06T20:53:02.553Z,10.90
2022-11-06T20:55:29.582Z,8.90
2022-11-06T20:57:56.322Z,10.40
2022-11-06T21:00:23.152Z,9.70
2022-11-06T21:02:49.903Z,9.90
2022-11-06T21:05:16.747Z,10.70
2022-11-06T21:07:43.322Z,10.30
2022-11-06T21:10:10.918Z,10.07
2022-11-06T21:12:38.376Z,9.60
2022-11-06T21:15:05.801Z,9.77
2022-11-06T21:17:32.920Z,10.73
2022-11-06T21:20:00.373Z,10.47
2022-11-06T21:22:27.138Z,10.00
2022-11-06T21:24:53.675Z,10.30
2022-11-06T21:27:20.513Z,11.07
2022-11-06T21:29:47.370Z,10.17
2022-11-06T21:32:13.905Z,11.30
2022-11-06T21:34:42.489Z,10.63
2022-11-06T21:37:09.078Z,10.10
2022-11-06T21:39:36.654Z,11.03
2022-11-06T21:42:06.048Z,10.83
2022-11-06T21:44:32.774Z,11.33
2022-11-06T21:46:59.371Z,10.63
2022-11-06T21:49:26.067Z,11.23
2022-11-06T21:51:52.713Z,11.33
2022-11-06T21:54:38.046Z,11.43
2022-11-06T21:57:04.642Z,11.80
2022-11-06T21:59:31.423Z,11.37
2022-11-06T22:01:58.445Z,11.47
2022-11-06T22:04:25.205Z,12.23
2022-11-06T22:06:52.545Z,11.83
2022-11-06T22:09:24.571Z,11.50
2022-11-06T22:11:51.729Z,11.23
2022-11-06T22:14:18.292Z,11.53
2022-11-06T22:16:46.450Z,11.37
2022-11-06T22:19:13.957Z,11.97
2022-11-06T22:21:40.773Z,11.37
2022-11-06T22:24:07.971Z,11.17
2022-11-06T22:26:35.678Z,10.37
2022-11-06T22:29:06.112Z,11.83
2022-11-06T22:31:32.850Z,11.50
2022-11-06T22:33:59.511Z,12.43
2022-11-06T22:36:26.312Z,11.60
2022-11-06T22:38:53.218Z,11.10
2022-11-06T22:41:23.584Z,11.40
2022-11-06T22:43:51.227Z,11.73
2022-11-06T22:46:22.898Z,11.47
2022-11-06T22:48:51.045Z,10.77
2022-11-06T22:51:21.177Z,12.20
2022-11-06T22:53:48.108Z,10.73
2022-11-06T22:56:14.733Z,11.60
2022-11-06T22:58:42.284Z,12.20
2022-11-06T23:01:10.619Z,11.70
2022-11-06T23:03:38.039Z,11.93
2022-11-06T23:06:06.682Z,11.17
2022-11-06T23:08:34.070Z,11.27
2022-11-06T23:11:10.684Z,11.17
2022-11-06T23:13:37.938Z,11.10
2022-11-06T23:16:17.186Z,12.03
2022-11-06T23:18:43.818Z,11.60
2022-11-06T23:21:16.079Z,11.27
2022-11-06T23:23:43.439Z,11.97
2022-11-06T23:26:18.336Z,11.00
2022-11-06T23:28:45.768Z,11.43
2022-11-06T23:31:13.893Z,11.30
2022-11-06T23:33:40.518Z,11.90
2022-11-06T23:36:12.947Z,11.80
2022-11-06T23:38:39.978Z,11.50
2022-11-06T23:41:30.721Z,11.23
2022-11-06T23:43:57.561Z,10.73
2022-11-06T23:46:32.170Z,10.90
2022-11-06T23:48:58.975Z,11.57
2022-11-06T23:51:26.711Z,10.80
2022-11-06T23:53:53.671Z,11.00
2022-11-06T23:56:20.380Z,11.50
2022-11-06T23:58:47.006Z,11.70
